Time;durP1;ratioP1;P1;durP2;ratioP2;P2;SDS_P1;SDS_P2;PMS_P1;PMS_P2;Temp;Humidity;BMP_temperature;BMP_pressure;BME280_temperature;BME280_humidity;BME280_pressure;Samples;Min_cycle;Max_cycle;Signal;HPM_P1;HPM_P2
2023/12/25 00:01:14;;;;;;;2.80;0.13;;;12.30;99.90;;;;;;5022059;23;20246;-89
2023/12/25 00:03:15;;;;;;;0.00;0.00;;;12.20;99.90;;;;;;5022018;23;20154;-94
2023/12/25 00:05:15;;;;;;;2.83;0.73;;;12.20;99.90;;;;;;5021718;23;20222;-91
2023/12/25 00:07:16;;;;;;;1.45;0.00;;;12.20;99.90;;;;;;4998557;23;20163;-90
2023/12/25 00:09:18;;;;;;;3.10;0.20;;;12.20;99.90;;;;;;5022022;23;20159;-90
2023/12/25 00:11:19;;;;;;;0.10;0.10;;;12.20;99.90;;;;;;5021806;23;20163;-91
2023/12/25 00:13:20;;;;;;;1.05;0.22;;;12.30;99.90;;;;;;4998123;23;20156;-91
2023/12/25 00:15:21;;;;;;;0.47;0.00;;;12.20;99.90;;;;;;5021739;23;20215;-91
2023/12/25 00:17:22;;;;;;;1.02;0.40;;;12.30;99.90;;;;;;4997996;23;20190;-90
2023/12/25 00:19:23;;;;;;;1.02;0.20;;;12.20;99.90;;;;;;5022018;23;20155;-93
2023/12/25 00:21:23;;;;;;;0.17;0.10;;;12.20;99.90;;;;;;5022204;23;20235;-90
2023/12/25 00:23:24;;;;;;;0.22;0.22;;;12.20;99.90;;;;;;5022096;23;20175;-93
2023/12/25 00:25:25;;;;;;;0.20;0.15;;;12.20;99.90;;;;;;4998375;23;20183;-94
2023/12/25 00:27:26;;;;;;;0.00;0.00;;;12.30;99.90;;;;;;4998022;23;20160;-90
2023/12/25 00:29:27;;;;;;;4.15;0.43;;;12.20;99.90;;;;;;5021942;23;20186;-90
2023/12/25 00:31:29;;;;;;;0.25;0.10;;;12.20;99.90;;;;;;5021586;23;20155;-90
2023/12/25 00:33:30;;;;;;;0.30;0.20;;;12.20;99.90;;;;;;4998074;23;20231;-90
2023/12/25 00:35:30;;;;;;;0.32;0.00;;;12.30;99.90;;;;;;5045627;23;20750;-89
2023/12/25 00:37:31;;;;;;;0.30;0.15;;;12.20;99.90;;;;;;5021756;23;20158;-93
2023/12/25 00:39:32;;;;;;;0.00;0.00;;;12.20;99.90;;;;;;4998093;23;20204;-94
2023/12/25 00:41:33;;;;;;;0.00;0.00;;;12.30;99.90;;;;;;4998173;23;20167;-90
2023/12/25 00:43:34;;;;;;;0.20;0.00;;;12.20;99.90;;;;;;5021807;23;20227;-90
2023/12/25 00:45:35;;;;;;;0.80;0.10;;;12.10;99.90;;;;;;4998121;23;20168;-90
2023/12/25 00:47:35;;;;;;;0.20;0.10;;;12.10;99.90;;;;;;4997987;23;20452;-91
2023/12/25 00:49:36;;;;;;;0.20;0.10;;;12.10;99.90;;;;;;5021985;23;20641;-91
2023/12/25 00:51:37;;;;;;;3.10;0.17;;;12.20;99.90;;;;;;4997984;23;20278;-90
2023/12/25 00:53:38;;;;;;;0.08;0.08;;;12.20;99.90;;;;;;5021689;23;20166;-90
2023/12/25 00:55:39;;;;;;;2.25;0.20;;;12.20;99.90;;;;;;4997813;23;20176;-91
2023/12/25 00:57:39;;;;;;;2.25;0.28;;;12.10;99.90;;;;;;5021825;23;20151;-90
2023/12/25 00:59:40;;;;;;;5.15;0.20;;;12.10;99.90;;;;;;4997978;23;20160;-92
2023/12/25 01:01:41;;;;;;;0.13;0.13;;;12.10;99.90;;;;;;4997870;23;20158;-92
2023/12/25 01:03:42;;;;;;;0.08;0.08;;;12.10;99.90;;;;;;5021717;23;20163;-91
2023/12/25 01:05:42;;;;;;;0.88;0.40;;;12.10;99.90;;;;;;4997858;23;20187;-90
2023/12/25 01:07:43;;;;;;;2.00;0.43;;;12.00;99.90;;;;;;4998028;23;20514;-91
2023/12/25 01:09:44;;;;;;;0.45;0.17;;;12.10;99.90;;;;;;4998307;23;20159;-87
2023/12/25 01:11:45;;;;;;;0.00;0.00;;;12.10;99.90;;;;;;5022731;23;20183;-88
2023/12/25 01:13:46;;;;;;;1.45;0.30;;;12.10;99.90;;;;;;4997855;23;20234;-88
2023/12/25 01:15:47;;;;;;;0.17;0.17;;;12.10;99.90;;;;;;5021289;23;20180;-88
2023/12/25 01:17:47;;;;;;;2.83;0.28;;;12.20;99.90;;;;;;4997777;23;20159;-89
2023/12/25 01:19:48;;;;;;;1.48;0.55;;;12.20;99.90;;;;;;5021610;23;20185;-89
2023/12/25 01:21:49;;;;;;;1.80;0.47;;;12.20;99.90;;;;;;4997601;23;20211;-89
2023/12/25 01:23:50;;;;;;;1.58;0.40;;;12.30;99.90;;;;;;5021518;23;20241;-87
2023/12/25 01:25:50;;;;;;;1.48;0.28;;;12.40;99.90;;;;;;4997179;23;20168;-89
2023/12/25 01:27:51;;;;;;;6.25;0.65;;;12.40;99.90;;;;;;5021159;23;20159;-88
2023/12/25 01:29:52;;;;;;;0.65;0.38;;;12.40;99.90;;;;;;5021459;23;20186;-88
2023/12/25 01:31:53;;;;;;;0.20;0.10;;;12.40;99.90;;;;;;4997508;23;20188;-89
2023/12/25 01:33:54;;;;;;;0.05;0.03;;;12.50;99.90;;;;;;5021100;23;20155;-88
2023/12/25 01:35:54;;;;;;;4.65;0.70;;;12.40;99.90;;;;;;4997648;23;20270;-88
2023/12/25 01:37:55;;;;;;;1.75;0.28;;;12.40;99.90;;;;;;5021638;23;20174;-88
2023/12/25 01:39:56;;;;;;;0.28;0.28;;;12.50;99.90;;;;;;4997659;23;20155;-88
2023/12/25 01:41:59;;;;;;;0.20;0.08;;;12.60;99.90;;;;;;5045004;23;20248;-95
2023/12/25 01:43:59;;;;;;;0.10;0.10;;;12.50;99.90;;;;;;4997486;23;20152;-88
2023/12/25 01:46:00;;;;;;;0.38;0.30;;;12.50;99.90;;;;;;4997293;23;20183;-88
2023/12/25 01:48:01;;;;;;;0.63;0.10;;;12.50;99.90;;;;;;4997699;23;20195;-89
2023/12/25 01:50:04;;;;;;;1.45;0.10;;;12.60;99.90;;;;;;5021173;23;20618;-89
2023/12/25 01:52:05;;;;;;;0.63;0.10;;;12.60;99.90;;;;;;5021195;23;20198;-88
2023/12/25 01:54:07;;;;;;;0.88;0.32;;;12.60;99.90;;;;;;5021286;23;20574;-89
2023/12/25 01:56:08;;;;;;;0.00;0.00;;;12.70;99.90;;;;;;5021237;23;20234;-88
2023/12/25 01:58:09;;;;;;;2.17;0.10;;;12.70;99.90;;;;;;5021046;23;20150;-88
2023/12/25 02:00:10;;;;;;;0.57;0.17;;;12.80;99.90;;;;;;5021219;23;20162;-88
2023/12/25 02:02:18;;;;;;;2.40;0.10;;;12.80;99.90;;;;;;5044934;23;20262;-88
2023/12/25 02:04:20;;;;;;;0.10;0.05;;;12.70;99.90;;;;;;4997644;23;20600;-88
2023/12/25 02:06:22;;;;;;;0.38;0.10;;;12.80;99.90;;;;;;4997354;23;20209;-88
2023/12/25 02:08:23;;;;;;;0.20;0.10;;;12.70;99.90;;;;;;4997411;23;20155;-88
2023/12/25 02:10:29;;;;;;;0.30;0.10;;;12.70;99.90;;;;;;4997258;23;20151;-88
2023/12/25 02:12:29;;;;;;;0.00;0.00;;;12.70;99.90;;;;;;5021005;23;20191;-88
2023/12/25 02:14:30;;;;;;;0.25;0.20;;;12.70;99.90;;;;;;4997275;23;20160;-92
2023/12/25 02:16:32;;;;;;;0.28;0.10;;;12.70;99.90;;;;;;4997376;23;20180;-88
2023/12/25 02:18:33;;;;;;;0.25;0.10;;;12.60;99.90;;;;;;4997194;23;20247;-88
2023/12/25 02:20:34;;;;;;;0.70;0.40;;;12.50;99.90;;;;;;4997505;23;20159;-88
2023/12/25 02:22:34;;;;;;;0.32;0.15;;;12.60;99.90;;;;;;5020874;23;20483;-88
2023/12/25 02:24:38;;;;;;;0.30;0.20;;;12.70;99.90;;;;;;4997568;23;20155;-88
2023/12/25 02:26:39;;;;;;;2.92;0.75;;;12.70;99.90;;;;;;5020763;23;20218;-88
2023/12/25 02:28:41;;;;;;;0.63;0.40;;;12.60;99.90;;;;;;5021139;23;20234;-88
2023/12/25 02:30:45;;;;;;;1.00;0.38;;;12.50;99.90;;;;;;5021376;23;20238;-88
2023/12/25 02:32:45;;;;;;;1.65;0.80;;;12.50;99.90;;;;;;5021132;23;20226;-87
2023/12/25 02:34:47;;;;;;;0.20;0.15;;;12.40;99.90;;;;;;5021220;23;20180;-88
2023/12/25 02:36:48;;;;;;;0.70;0.47;;;12.40;99.90;;;;;;5021107;23;20281;-89
2023/12/25 02:38:48;;;;;;;1.15;0.40;;;12.40;99.90;;;;;;4997307;23;20635;-88
2023/12/25 02:40:49;;;;;;;3.25;0.20;;;12.30;99.90;;;;;;4997366;23;20219;-88
2023/12/25 02:42:50;;;;;;;1.52;0.20;;;12.30;99.90;;;;;;5020865;23;20158;-88
2023/12/25 02:44:52;;;;;;;0.65;0.45;;;12.30;99.90;;;;;;4997077;23;20260;-93
2023/12/25 02:46:53;;;;;;;0.15;0.13;;;12.30;99.90;;;;;;4997005;23;20175;-88
2023/12/25 02:48:55;;;;;;;0.13;0.10;;;12.30;99.90;;;;;;4997196;23;20215;-88
2023/12/25 02:50:55;;;;;;;0.40;0.05;;;12.30;99.90;;;;;;4997099;23;20155;-89
2023/12/25 02:52:56;;;;;;;1.95;0.10;;;12.40;99.90;;;;;;4997277;23;20195;-89
2023/12/25 02:54:57;;;;;;;0.10;0.05;;;12.40;99.90;;;;;;5020939;23;20157;-88
2023/12/25 02:56:58;;;;;;;0.13;0.10;;;12.50;99.90;;;;;;5020780;23;20186;-88
2023/12/25 02:58:58;;;;;;;0.13;0.10;;;12.40;99.90;;;;;;5020784;23;20615;-88
2023/12/25 03:00:59;;;;;;;1.17;0.30;;;12.50;99.90;;;;;;5020592;23;20162;-88
2023/12/25 03:03:00;;;;;;;0.95;0.40;;;12.50;99.90;;;;;;5020671;23;20251;-88
2023/12/25 03:05:01;;;;;;;0.32;0.20;;;12.50;99.90;;;;;;5020631;23;20570;-88
2023/12/25 03:07:02;;;;;;;0.20;0.15;;;12.50;99.90;;;;;;5044597;23;20205;-89
2023/12/25 03:09:03;;;;;;;0.50;0.30;;;12.40;99.90;;;;;;5020780;23;20163;-88
2023/12/25 03:11:04;;;;;;;0.30;0.20;;;12.50;99.90;;;;;;5020958;23;20606;-89
2023/12/25 03:13:05;;;;;;;0.60;0.40;;;12.40;99.90;;;;;;4997187;23;20191;-90
2023/12/25 03:15:06;;;;;;;2.15;0.40;;;12.40;99.90;;;;;;4997142;23;20156;-88
2023/12/25 03:17:07;;;;;;;1.20;0.45;;;12.40;99.90;;;;;;5044455;23;20150;-87
2023/12/25 03:19:08;;;;;;;0.28;0.20;;;12.40;99.90;;;;;;4997278;23;20597;-88
2023/12/25 03:21:09;;;;;;;11.35;1.58;;;12.40;99.90;;;;;;5020961;23;20158;-88
2023/12/25 03:23:10;;;;;;;1.02;0.50;;;12.50;99.90;;;;;;4997278;23;20159;-88
2023/12/25 03:25:11;;;;;;;1.67;0.43;;;12.40;99.90;;;;;;4996919;23;20160;-89
2023/12/25 03:27:11;;;;;;;1.70;0.47;;;12.40;99.90;;;;;;4997011;23;20160;-88
2023/12/25 03:29:12;;;;;;;0.35;0.30;;;12.40;99.90;;;;;;5020758;23;20151;-88
2023/12/25 03:31:13;;;;;;;0.55;0.30;;;12.30;99.90;;;;;;5020844;23;20158;-88
2023/12/25 03:33:14;;;;;;;0.57;0.35;;;12.40;99.90;;;;;;5020800;23;20201;-87
2023/12/25 03:35:15;;;;;;;0.30;0.30;;;12.30;99.90;;;;;;5020812;23;20226;-87
2023/12/25 03:37:17;;;;;;;0.30;0.30;;;12.30;99.90;;;;;;4997092;23;20227;-87
2023/12/25 03:39:18;;;;;;;0.47;0.45;;;12.20;99.90;;;;;;5021873;23;20155;-88
2023/12/25 03:41:20;;;;;;;1.40;0.68;;;12.30;99.90;;;;;;4998625;23;20191;-92
2023/12/25 03:43:23;;;;;;;0.95;0.52;;;12.30;99.90;;;;;;5022070;23;20158;-87
2023/12/25 03:45:24;;;;;;;0.50;0.38;;;12.20;99.90;;;;;;4998272;23;20179;-87
2023/12/25 03:47:24;;;;;;;1.00;0.50;;;12.10;99.90;;;;;;5022072;23;20221;-88
2023/12/25 03:49:25;;;;;;;1.08;0.70;;;12.10;99.90;;;;;;4998321;23;20151;-88
2023/12/25 03:51:26;;;;;;;0.77;0.45;;;12.20;99.90;;;;;;4997982;23;20175;-87
2023/12/25 03:53:27;;;;;;;1.42;0.40;;;12.10;99.90;;;;;;5021973;23;20665;-94
2023/12/25 03:55:28;;;;;;;0.75;0.50;;;12.10;99.90;;;;;;5021924;23;20171;-88
2023/12/25 03:57:29;;;;;;;0.85;0.30;;;12.10;99.90;;;;;;5021824;23;20622;-88
2023/12/25 03:59:30;;;;;;;0.95;0.60;;;12.10;99.90;;;;;;5022001;23;20192;-87
2023/12/25 04:01:31;;;;;;;1.15;0.45;;;12.00;99.90;;;;;;5021773;23;20166;-87
2023/12/25 04:03:32;;;;;;;1.13;0.57;;;12.00;99.90;;;;;;4998135;23;20156;-89
2023/12/25 04:05:33;;;;;;;0.50;0.43;;;12.00;99.90;;;;;;4998029;23;20195;-88
2023/12/25 04:07:33;;;;;;;0.50;0.30;;;12.00;99.90;;;;;;4998381;23;20151;-88
2023/12/25 04:09:34;;;;;;;1.60;0.57;;;12.00;99.90;;;;;;5022014;23;20187;-89
2023/12/25 04:11:35;;;;;;;0.55;0.45;;;11.90;99.90;;;;;;4998229;23;20156;-88
2023/12/25 04:13:36;;;;;;;0.22;0.22;;;11.90;99.90;;;;;;5022077;23;20151;-87
2023/12/25 04:15:36;;;;;;;0.52;0.50;;;11.90;99.90;;;;;;5021621;23;20171;-88
2023/12/25 04:17:37;;;;;;;0.98;0.32;;;11.90;99.90;;;;;;4997771;23;20163;-88
2023/12/25 04:19:40;;;;;;;0.82;0.30;;;12.00;99.90;;;;;;5021963;23;20227;-95
2023/12/25 04:21:41;;;;;;;1.45;0.40;;;12.10;99.90;;;;;;5022124;23;20166;-87
2023/12/25 04:23:42;;;;;;;0.65;0.30;;;12.00;99.90;;;;;;5021763;23;20159;-87
2023/12/25 04:25:43;;;;;;;0.22;0.20;;;12.00;99.90;;;;;;5021686;23;20175;-92
2023/12/25 04:27:43;;;;;;;0.30;0.20;;;11.90;99.90;;;;;;4998246;23;20156;-88
2023/12/25 04:29:45;;;;;;;0.50;0.40;;;11.90;99.90;;;;;;5021599;23;20166;-94
2023/12/25 04:31:46;;;;;;;0.93;0.45;;;11.90;99.90;;;;;;4997887;23;20549;-93
2023/12/25 04:33:46;;;;;;;0.10;0.10;;;11.80;99.90;;;;;;5021384;23;20159;-88
2023/12/25 04:35:47;;;;;;;2.08;0.40;;;11.90;99.90;;;;;;4997752;23;20179;-88
2023/12/25 04:37:48;;;;;;;0.57;0.30;;;11.80;99.90;;;;;;4997972;23;20155;-89
2023/12/25 04:39:49;;;;;;;0.63;0.25;;;11.90;99.90;;;;;;4997914;23;20226;-89
2023/12/25 04:41:50;;;;;;;0.30;0.20;;;11.90;99.90;;;;;;5021667;23;20158;-88
2023/12/25 04:43:51;;;;;;;0.40;0.30;;;11.90;99.90;;;;;;4998160;23;20175;-88
2023/12/25 04:45:52;;;;;;;0.30;0.28;;;12.00;99.90;;;;;;5021498;23;20234;-88
2023/12/25 04:47:53;;;;;;;0.20;0.20;;;12.00;99.90;;;;;;5021567;23;20186;-88
2023/12/25 04:49:53;;;;;;;0.45;0.30;;;12.00;99.90;;;;;;5021505;23;20151;-88
2023/12/25 04:51:54;;;;;;;0.65;0.20;;;12.00;99.90;;;;;;4997764;23;20183;-88
2023/12/25 04:53:55;;;;;;;0.10;0.10;;;12.10;99.90;;;;;;4998186;23;20184;-88
2023/12/25 04:55:56;;;;;;;0.70;0.30;;;12.00;99.90;;;;;;4997911;23;20538;-88
2023/12/25 04:57:57;;;;;;;0.22;0.20;;;12.10;99.90;;;;;;4998150;23;20235;-93
2023/12/25 04:59:57;;;;;;;0.47;0.30;;;12.00;99.90;;;;;;5021693;23;20151;-88
2023/12/25 05:02:00;;;;;;;1.20;0.40;;;12.00;99.90;;;;;;4998041;23;20163;-89
2023/12/25 05:04:00;;;;;;;3.20;0.20;;;12.00;99.90;;;;;;4997979;23;20147;-89
2023/12/25 05:06:01;;;;;;;0.32;0.25;;;12.00;99.90;;;;;;5021610;23;20517;-90
2023/12/25 05:08:03;;;;;;;0.38;0.20;;;11.90;99.90;;;;;;4997921;23;20659;-89
2023/12/25 05:10:04;;;;;;;0.30;0.10;;;12.00;99.90;;;;;;5045270;23;20154;-88
2023/12/25 05:12:05;;;;;;;0.10;0.10;;;12.00;99.90;;;;;;5045798;23;20186;-89
2023/12/25 05:14:06;;;;;;;0.10;0.10;;;11.90;99.90;;;;;;5021713;23;20187;-90
2023/12/25 05:16:07;;;;;;;0.10;0.03;;;11.90;99.90;;;;;;5021245;23;20181;-89
2023/12/25 05:18:08;;;;;;;0.15;0.10;;;11.80;99.90;;;;;;5021333;23;20155;-88
2023/12/25 05:20:09;;;;;;;0.00;0.00;;;11.80;99.90;;;;;;4997957;23;20249;-89
2023/12/25 05:22:12;;;;;;;0.20;0.00;;;11.80;99.90;;;;;;5021573;23;20226;-93
2023/12/25 05:24:13;;;;;;;0.03;0.00;;;11.90;99.90;;;;;;5045377;23;20154;-88
2023/12/25 05:26:13;;;;;;;0.15;0.10;;;11.90;99.90;;;;;;5021036;23;20702;-89
2023/12/25 05:28:15;;;;;;;0.00;0.00;;;11.90;99.90;;;;;;5021325;23;20179;-88
2023/12/25 05:30:16;;;;;;;0.15;0.15;;;11.80;99.90;;;;;;4997724;23;20163;-88
2023/12/25 05:32:16;;;;;;;0.10;0.10;;;11.80;99.90;;;;;;5021213;23;20241;-88
2023/12/25 05:34:17;;;;;;;0.00;0.00;;;11.90;99.90;;;;;;4997517;23;20666;-89
2023/12/25 05:36:18;;;;;;;0.47;0.17;;;11.90;99.90;;;;;;4997724;23;20172;-89
2023/12/25 05:38:19;;;;;;;1.75;0.10;;;11.90;99.90;;;;;;4997702;23;20159;-89
2023/12/25 05:40:20;;;;;;;0.32;0.10;;;11.90;99.90;;;;;;5044924;23;20594;-90
2023/12/25 05:42:20;;;;;;;0.17;0.08;;;11.90;99.90;;;;;;5021641;23;20152;-93
2023/12/25 05:44:21;;;;;;;0.50;0.08;;;11.90;99.90;;;;;;4997851;23;20187;-89
2023/12/25 05:46:22;;;;;;;0.45;0.03;;;12.00;99.90;;;;;;4997490;23;20175;-88
2023/12/25 05:48:23;;;;;;;0.05;0.00;;;12.00;99.90;;;;;;5021186;23;20151;-92
2023/12/25 05:50:23;;;;;;;0.25;0.10;;;12.00;99.90;;;;;;5021241;23;20632;-89
2023/12/25 05:52:24;;;;;;;0.65;0.20;;;12.00;99.90;;;;;;5021210;23;20342;-89
2023/12/25 05:54:25;;;;;;;0.22;0.10;;;12.10;99.90;;;;;;4997562;23;20156;-89
2023/12/25 05:56:26;;;;;;;0.30;0.20;;;12.00;99.90;;;;;;4997317;23;20228;-88
2023/12/25 05:58:27;;;;;;;0.20;0.10;;;12.00;99.90;;;;;;4997300;23;20235;-89
2023/12/25 06:00:28;;;;;;;0.10;0.10;;;12.00;99.90;;;;;;5020957;23;20154;-89
2023/12/25 06:02:29;;;;;;;0.10;0.10;;;12.00;99.90;;;;;;4997256;23;20163;-89
2023/12/25 06:04:30;;;;;;;0.82;0.17;;;12.10;99.90;;;;;;5020697;23;20162;-89
2023/12/25 06:06:30;;;;;;;1.48;0.20;;;12.10;99.90;;;;;;4997394;23;20175;-89
2023/12/25 06:08:32;;;;;;;0.20;0.10;;;12.00;99.90;;;;;;5021297;23;20154;-92
2023/12/25 06:10:33;;;;;;;0.30;0.20;;;12.10;99.90;;;;;;5021371;23;20151;-95
2023/12/25 06:12:34;;;;;;;2.72;0.47;;;12.10;99.90;;;;;;4997557;23;20202;-91
2023/12/25 06:14:36;;;;;;;1.30;0.10;;;12.10;99.90;;;;;;4997610;23;20156;-91
2023/12/25 06:16:36;;;;;;;0.10;0.10;;;12.00;99.90;;;;;;4997421;23;20204;-94
2023/12/25 06:18:37;;;;;;;0.75;0.20;;;11.90;99.90;;;;;;5021336;23;20155;-93
2023/12/25 06:20:38;;;;;;;0.35;0.10;;;12.00;99.90;;;;;;4997538;23;20151;-94
2023/12/25 06:22:39;;;;;;;0.22;0.05;;;12.00;99.90;;;;;;4997490;23;20153;-90
2023/12/25 06:24:40;;;;;;;0.55;0.32;;;11.90;99.90;;;;;;5021236;23;20163;-92
2023/12/25 06:26:41;;;;;;;0.10;0.10;;;11.90;99.90;;;;;;4997294;23;20262;-91
2023/12/25 06:28:42;;;;;;;0.43;0.30;;;12.00;99.90;;;;;;4997379;23;20488;-92
2023/12/25 06:30:43;;;;;;;0.43;0.20;;;12.00;99.90;;;;;;5020921;23;20151;-92
2023/12/25 06:32:44;;;;;;;0.17;0.10;;;12.10;99.90;;;;;;4997435;23;20250;-94
2023/12/25 06:34:45;;;;;;;0.57;0.10;;;12.10;99.90;;;;;;5021148;23;20150;-90
2023/12/25 06:36:45;;;;;;;0.10;0.10;;;12.10;99.90;;;;;;4997465;23;20182;-92
2023/12/25 06:38:47;;;;;;;0.30;0.20;;;12.20;99.90;;;;;;5021388;23;20155;-92
2023/12/25 06:40:48;;;;;;;0.10;0.10;;;12.20;99.90;;;;;;4997335;23;20199;-95
2023/12/25 06:42:48;;;;;;;0.32;0.22;;;12.20;99.90;;;;;;4997325;23;20190;-91
2023/12/25 06:44:49;;;;;;;0.05;0.00;;;12.20;99.90;;;;;;4997236;23;20152;-91
2023/12/25 06:46:50;;;;;;;0.35;0.25;;;12.20;99.90;;;;;;5020679;23;20179;-91
2023/12/25 06:48:51;;;;;;;0.43;0.10;;;12.20;99.90;;;;;;5021085;23;20553;-91
2023/12/25 06:50:53;;;;;;;0.00;0.00;;;12.20;99.90;;;;;;4997685;23;20191;-91
2023/12/25 06:52:54;;;;;;;0.20;0.00;;;12.20;99.90;;;;;;4998134;23;20646;-92
2023/12/25 06:54:55;;;;;;;4.32;0.25;;;12.20;99.90;;;;;;4998646;23;20156;-93
2023/12/25 06:56:55;;;;;;;0.90;0.65;;;12.10;99.90;;;;;;4997889;23;20175;-96
2023/12/25 06:58:56;;;;;;;1.50;0.43;;;12.10;99.90;;;;;;5020880;23;20639;-92
2023/12/25 07:00:59;;;;;;;0.30;0.22;;;12.10;99.90;;;;;;4997277;23;20163;-96
2023/12/25 07:03:00;;;;;;;8.32;2.15;;;12.00;99.90;;;;;;5044921;23;20158;-94
2023/12/25 07:05:00;;;;;;;1.00;0.80;;;12.10;99.90;;;;;;5020711;23;20171;-92
2023/12/25 07:07:02;;;;;;;2.28;1.25;;;12.10;99.90;;;;;;4997185;23;20167;-92
2023/12/25 07:09:03;;;;;;;2.22;0.32;;;12.20;99.90;;;;;;4997275;23;20211;-91
2023/12/25 07:11:04;;;;;;;0.55;0.40;;;12.20;99.90;;;;;;5020884;23;20186;-92
2023/12/25 07:13:05;;;;;;;1.55;1.40;;;12.20;99.90;;;;;;5021397;23;20194;-91
2023/12/25 07:15:06;;;;;;;0.40;0.20;;;12.20;99.90;;;;;;4999099;23;20156;-91
2023/12/25 07:17:08;;;;;;;5.32;4.18;;;12.10;99.90;;;;;;4998672;23;20231;-91
2023/12/25 07:19:09;;;;;;;5.57;3.33;;;12.20;99.90;;;;;;4999017;23;20209;-94
2023/12/25 07:21:10;;;;;;;0.75;0.65;;;12.20;99.90;;;;;;5022466;23;20241;-92
2023/12/25 07:23:12;;;;;;;4.43;3.13;;;12.10;99.90;;;;;;4999112;23;20151;-92
2023/12/25 07:25:13;;;;;;;2.92;2.10;;;12.10;99.90;;;;;;4998940;23;20163;-94
2023/12/25 07:27:14;;;;;;;0.20;0.20;;;12.10;99.90;;;;;;5023196;23;20143;-91
2023/12/25 07:29:16;;;;;;;0.25;0.20;;;12.20;99.90;;;;;;5023605;23;20622;-91
2023/12/25 07:31:17;;;;;;;0.95;0.25;;;12.10;99.90;;;;;;4999984;23;20159;-94
2023/12/25 07:33:18;;;;;;;2.13;1.02;;;12.10;99.90;;;;;;5022646;23;20589;-91
2023/12/25 07:35:19;;;;;;;0.88;0.50;;;12.10;99.90;;;;;;5022514;23;20155;-94
2023/12/25 07:37:20;;;;;;;1.02;0.75;;;12.10;99.90;;;;;;5046240;23;20154;-93
2023/12/25 07:39:21;;;;;;;0.90;0.28;;;12.20;99.90;;;;;;4998629;23;20203;-95
2023/12/25 07:41:23;;;;;;;0.50;0.38;;;12.20;99.90;;;;;;5022167;23;20682;-92
2023/12/25 07:43:26;;;;;;;0.22;0.20;;;12.20;99.90;;;;;;5022340;23;20617;-94
2023/12/25 07:45:27;;;;;;;1.35;0.70;;;12.30;99.90;;;;;;4998754;23;20250;-92
2023/12/25 07:47:27;;;;;;;0.40;0.40;;;12.20;99.90;;;;;;4998536;23;20642;-92
2023/12/25 07:49:28;;;;;;;0.43;0.40;;;12.20;99.90;;;;;;4998661;23;20148;-92
2023/12/25 07:51:29;;;;;;;0.65;0.30;;;12.20;99.90;;;;;;4998469;23;20152;-94
2023/12/25 07:53:30;;;;;;;0.52;0.40;;;12.20;99.90;;;;;;5022624;23;20174;-91
2023/12/25 07:55:32;;;;;;;0.75;0.30;;;12.20;99.90;;;;;;5022310;23;20681;-93
2023/12/25 07:57:33;;;;;;;2.15;0.45;;;12.20;99.90;;;;;;4998667;23;20641;-92
2023/12/25 07:59:34;;;;;;;0.30;0.30;;;12.20;99.90;;;;;;4998611;23;20179;-92
2023/12/25 08:01:35;;;;;;;0.85;0.40;;;12.20;99.90;;;;;;5022208;23;20159;-95
2023/12/25 08:03:36;;;;;;;0.25;0.20;;;12.10;99.90;;;;;;5022177;23;20162;-92
2023/12/25 08:05:37;;;;;;;1.08;0.52;;;12.10;99.90;;;;;;4998216;23;20684;-94
2023/12/25 08:07:38;;;;;;;0.22;0.10;;;12.10;99.90;;;;;;4998453;23;20215;-92
2023/12/25 08:09:39;;;;;;;0.10;0.10;;;12.30;99.90;;;;;;4998365;23;20162;-93
2023/12/25 08:11:39;;;;;;;0.40;0.20;;;12.20;99.90;;;;;;5022084;23;20157;-92
2023/12/25 08:13:40;;;;;;;1.63;0.45;;;12.20;99.90;;;;;;4998296;23;20528;-93
2023/12/25 08:15:41;;;;;;;1.13;0.80;;;12.20;99.90;;;;;;4998491;23;20783;-92
2023/12/25 08:17:42;;;;;;;0.75;0.50;;;12.30;99.90;;;;;;5022003;23;20162;-92
2023/12/25 08:19:43;;;;;;;1.67;0.60;;;12.30;99.90;;;;;;4998669;23;20199;-95
2023/12/25 08:21:44;;;;;;;0.93;0.40;;;12.20;99.90;;;;;;4998170;23;20279;-91
2023/12/25 08:23:45;;;;;;;0.90;0.35;;;12.20;99.90;;;;;;4998481;23;20639;-92
2023/12/25 08:25:45;;;;;;;0.38;0.22;;;12.20;99.90;;;;;;5021516;23;20246;-93
2023/12/25 08:27:46;;;;;;;4.20;2.10;;;12.30;99.90;;;;;;5022223;23;20190;-95
2023/12/25 08:29:47;;;;;;;0.65;0.45;;;12.20;99.90;;;;;;4998113;23;20479;-95
2023/12/25 08:31:48;;;;;;;1.08;0.77;;;12.20;99.90;;;;;;5022862;23;20186;-91
2023/12/25 08:33:49;;;;;;;1.00;0.73;;;12.30;99.90;;;;;;5002114;23;20200;-92
2023/12/25 08:35:52;;;;;;;0.65;0.57;;;12.30;99.90;;;;;;5040780;23;20167;-92
2023/12/25 08:37:52;;;;;;;0.40;0.40;;;12.20;99.90;;;;;;5017039;23;20187;-93
2023/12/25 08:39:53;;;;;;;0.47;0.32;;;12.20;99.90;;;;;;5022542;23;20166;-91
2023/12/25 08:41:54;;;;;;;1.02;0.70;;;12.10;99.90;;;;;;5021998;23;20159;-93
2023/12/25 08:43:55;;;;;;;0.28;0.28;;;12.10;99.90;;;;;;4998578;23;20159;-92
2023/12/25 08:45:56;;;;;;;1.15;0.15;;;12.10;99.90;;;;;;4998119;23;20171;-92
2023/12/25 08:47:57;;;;;;;2.80;0.90;;;12.20;99.90;;;;;;5021973;23;20159;-93
2023/12/25 08:49:58;;;;;;;0.40;0.28;;;12.20;99.90;;;;;;5022341;23;20206;-91
2023/12/25 08:51:58;;;;;;;0.20;0.17;;;12.20;99.90;;;;;;5021713;23;20653;-91
2023/12/25 08:53:59;;;;;;;3.53;1.23;;;12.20;99.90;;;;;;4997832;23;20171;-91
2023/12/25 08:56:01;;;;;;;0.73;0.10;;;12.40;99.90;;;;;;4997999;23;20179;-95
2023/12/25 08:58:03;;;;;;;0.60;0.30;;;12.30;99.90;;;;;;5021643;23;20170;-93
2023/12/25 09:00:08;;;;;;;1.58;0.40;;;12.40;99.90;;;;;;5021611;23;20234;-93
2023/12/25 09:02:09;;;;;;;0.20;0.20;;;12.40;99.90;;;;;;5021391;23;20154;-91
2023/12/25 09:04:09;;;;;;;0.40;0.10;;;12.30;99.90;;;;;;5021857;23;20155;-95
2023/12/25 09:06:12;;;;;;;0.25;0.13;;;12.30;99.90;;;;;;4998384;23;20187;-92
2023/12/25 09:08:13;;;;;;;0.30;0.08;;;12.40;99.90;;;;;;5021882;23;20618;-91
2023/12/25 09:10:14;;;;;;;0.00;0.00;;;12.30;99.90;;;;;;4998270;23;20162;-91
2023/12/25 09:12:15;;;;;;;0.00;0.00;;;12.30;99.90;;;;;;4997856;23;20702;-92
2023/12/25 09:14:16;;;;;;;0.55;0.30;;;12.30;99.90;;;;;;4998033;23;20155;-95
2023/12/25 09:16:17;;;;;;;0.38;0.08;;;12.30;99.90;;;;;;4997837;23;20187;-95
2023/12/25 09:18:17;;;;;;;2.28;0.60;;;12.40;99.90;;;;;;5045192;23;20190;-96
2023/12/25 09:20:18;;;;;;;0.20;0.20;;;12.30;99.90;;;;;;5021819;23;20143;-95
2023/12/25 09:22:21;;;;;;;0.35;0.13;;;12.40;99.90;;;;;;4997778;23;20156;-91
2023/12/25 09:24:22;;;;;;;0.25;0.20;;;12.40;99.90;;;;;;5021827;23;20159;-91
2023/12/25 09:26:24;;;;;;;0.40;0.08;;;12.30;99.90;;;;;;4997352;23;20179;-91
2023/12/25 09:28:25;;;;;;;0.20;0.10;;;12.40;99.90;;;;;;5021503;23;20605;-91
2023/12/25 09:30:26;;;;;;;0.60;0.32;;;12.40;99.90;;;;;;4997875;23;20152;-93
2023/12/25 09:32:27;;;;;;;0.52;0.10;;;12.40;99.90;;;;;;4997782;23;20206;-95
2023/12/25 09:34:27;;;;;;;0.20;0.20;;;12.60;99.90;;;;;;4997825;23;20151;-93
2023/12/25 09:36:29;;;;;;;0.20;0.10;;;12.70;99.90;;;;;;4997652;23;20175;-94
2023/12/25 09:38:30;;;;;;;0.20;0.20;;;12.70;99.90;;;;;;4998083;23;20187;-91
2023/12/25 09:40:31;;;;;;;0.38;0.20;;;12.70;99.90;;;;;;5021530;23;20162;-92
2023/12/25 09:42:32;;;;;;;3.13;0.90;;;12.70;99.90;;;;;;5045290;23;20150;-92
2023/12/25 09:44:33;;;;;;;0.47;0.20;;;12.60;99.90;;;;;;5021498;23;20162;-91
2023/12/25 09:46:34;;;;;;;0.50;0.30;;;12.50;99.90;;;;;;4997302;23;20175;-94
2023/12/25 09:48:36;;;;;;;0.25;0.10;;;12.60;99.90;;;;;;4998093;23;20622;-95
2023/12/25 09:50:38;;;;;;;0.10;0.00;;;12.60;99.90;;;;;;4997806;23;20231;-92
2023/12/25 09:52:39;;;;;;;0.32;0.25;;;12.60;99.90;;;;;;5022074;23;20186;-95
2023/12/25 09:54:41;;;;;;;0.35;0.20;;;12.60;99.90;;;;;;5021608;23;20538;-93
2023/12/25 09:56:43;;;;;;;0.43;0.30;;;12.50;99.90;;;;;;5021872;23;20174;-91
2023/12/25 09:58:44;;;;;;;0.20;0.20;;;12.50;99.90;;;;;;5021934;23;20198;-93
2023/12/25 10:00:46;;;;;;;0.90;0.30;;;12.50;99.90;;;;;;5021483;23;20151;-91
2023/12/25 10:02:51;;;;;;;0.68;0.32;;;12.50;99.90;;;;;;5021605;23;20173;-93
2023/12/25 10:04:52;;;;;;;0.80;0.40;;;12.50;99.90;;;;;;5021443;23;20166;-91
2023/12/25 10:06:53;;;;;;;1.02;0.40;;;12.50;99.90;;;;;;4997445;23;20199;-91
2023/12/25 10:08:56;;;;;;;0.30;0.10;;;12.50;99.90;;;;;;4997719;23;20250;-91
2023/12/25 10:10:56;;;;;;;0.80;0.40;;;12.50;99.90;;;;;;5023791;23;20214;-91
2023/12/25 10:13:04;;;;;;;0.73;0.63;;;12.50;99.90;;;;;;5023717;23;20194;-93
2023/12/25 10:15:05;;;;;;;0.25;0.20;;;12.60;99.90;;;;;;5021445;23;20150;-91
2023/12/25 10:17:07;;;;;;;0.55;0.45;;;12.50;99.90;;;;;;4997442;23;20159;-94
2023/12/25 10:19:08;;;;;;;0.30;0.20;;;12.50;99.90;;;;;;4997482;23;20231;-92
2023/12/25 10:21:09;;;;;;;0.93;0.40;;;12.50;99.90;;;;;;5021344;23;20694;-94
2023/12/25 10:23:12;;;;;;;0.77;0.32;;;12.50;99.90;;;;;;4997437;23;20155;-91
2023/12/25 10:25:15;;;;;;;0.30;0.20;;;12.60;99.90;;;;;;5021207;23;20193;-91
2023/12/25 10:27:15;;;;;;;0.43;0.40;;;12.50;99.90;;;;;;5021040;23;20162;-90
2023/12/25 10:29:16;;;;;;;3.85;1.60;;;12.50;99.90;;;;;;5021108;23;20226;-91
2023/12/25 10:31:26;;;;;;;5.30;2.10;;;12.50;99.90;;;;;;4997136;23;20156;-92